Indian Grove, Missouri
Current Conditions -  °F | °C
As of 10:15 AM on Thursday 18 Dec 2014 (Local Time) from KVER Reporting Station
Light Snow Light Snow  
Wind Chill: -3°   Ceiling: 600
Heat Index:   Visibility: 1.7mi
Dew Point: -1°   Wind: 6mph
Humidity: 94%   Direction: 90°E
Pressure: 30.27"   Gusts: NA
Location:  39.4474°N, 93.0872°W
Report Text: KVER 181615Z AUTO 09005KT 1 3/4SM -SN OVC006 00/M01 A3027 RMK AO2 T10031011
Loading
Personal Weather Stations






























Interactive Weather Map New forecast layout! Learn more

10-Day Weather Forecast

Advertisements
Track Severe Weather on mobile